Whitesburg, Tennessee
Current Conditions -  °F | °C
As of 8:35 PM on Tuesday 21 Oct 2014 (Local Time) from KMOR Reporting Station
Few Clouds Few Clouds  
Wind Chill: 54°   Ceiling: Unl
Heat Index: 54°   Visibility: 10mi
Dew Point: 39°   Wind: 9mph
Humidity: 58%   Direction: 360°N
Pressure: 30.08"   Gusts: NA
Location:  36.27°N, 83.14°W
Report Text: KMOR 220035Z AUTO 36008KT 10SM FEW065 12/04 A3008 RMK
Loading
Personal Weather Stations






























Interactive Weather Map
Tropical Storm Tracking
New forecast layout! Learn more

10-Day Weather Forecast

Advertisements
Track Severe Weather on mobile